< Cyclone 199914 2000 Season Cyclone 200002 >
Cyclone 200001 (ILSA)
General InformationDetailed Track InformationTrack Information on Google MapsList of All Images || ResourceGoogle EarthGE AnimationAtom FeedGeoJSON
Detalied Best Track Wind (Time Zone = UTC)
Year Month Day Hour Lat. Long. Wind (kt) Gust (kt) Direc. of Major Storm Axis Radius of Major Storm Axis (nm) Radius of Minor Storm Axis (nm) Direc. of Major Gale Axis Radius of Major Gale Axis (nm) Radius of Minor Gale Axis (nm) Image
1999 12 8 22 -8.9 95.0 23 -1 symmetric - - symmetric - - Image
1999 12 9 22 -9.1 97.2 23 -1 symmetric - - symmetric - - Image
1999 12 10 04 -9.2 97.8 27 -1 symmetric - - symmetric - - Image
1999 12 10 10 -9.7 98.4 31 -1 symmetric - - symmetric - - Image
1999 12 10 16 -10.0 99.0 31 -1 symmetric - - symmetric - - Image
1999 12 10 22 -10.4 99.6 35 -1 symmetric - - symmetric - - Image
1999 12 11 04 -10.7 100.3 41 -1 symmetric - - symmetric - - Image
1999 12 11 10 -11.0 100.7 49 -1 symmetric - - symmetric - - Image
1999 12 11 16 -11.2 101.4 49 -1 symmetric - - symmetric - - Image
1999 12 11 22 -11.6 102.1 54 -1 symmetric - - symmetric - - Image
1999 12 12 04 -11.8 102.7 54 -1 symmetric - - symmetric - - Image
1999 12 12 10 -12.1 103.2 49 -1 symmetric - - symmetric - - Image
1999 12 12 16 -12.2 103.7 49 -1 symmetric - - symmetric - - Image
1999 12 12 22 -12.2 104.2 49 -1 symmetric - - symmetric - - Image
1999 12 13 04 -12.2 104.7 41 -1 symmetric - - symmetric - - Image
1999 12 13 10 -12.2 105.4 41 -1 symmetric - - symmetric - - Image
1999 12 13 16 -12.2 106.4 41 -1 symmetric - - symmetric - - Image
1999 12 13 22 -12.2 107.4 41 -1 symmetric - - symmetric - - Image
1999 12 14 04 -12.2 108.4 41 -1 symmetric - - symmetric - - Image
1999 12 14 10 -12.2 109.5 41 -1 symmetric - - symmetric - - Image
1999 12 14 16 -12.2 110.5 41 -1 symmetric - - symmetric - - Image
1999 12 14 22 -12.3 111.5 41 -1 symmetric - - symmetric - - Image
1999 12 15 04 -12.4 112.4 41 -1 symmetric - - symmetric - - Image
1999 12 15 10 -12.6 113.5 41 -1 symmetric - - symmetric - - Image
1999 12 15 16 -13.4 114.5 39 -1 symmetric - - symmetric - - Image
1999 12 15 22 -14.5 115.5 39 -1 symmetric - - symmetric - - Image
1999 12 16 04 -15.5 116.7 39 -1 symmetric - - symmetric - - Image
1999 12 16 07 -16.1 117.5 39 -1 symmetric - - symmetric - - Image
1999 12 16 10 -16.8 118.2 35 -1 symmetric - - symmetric - - Image
1999 12 16 16 -17.5 118.9 35 -1 symmetric - - symmetric - - Image
1999 12 16 22 -18.5 119.8 35 -1 symmetric - - symmetric - - Image
1999 12 17 04 -19.5 120.7 35 -1 symmetric - - symmetric - - Image
1999 12 17 07 -19.8 121.0 35 -1 symmetric - - symmetric - - Image
1999 12 17 10 -20.1 121.3 35 -1 symmetric - - symmetric - - Image
< Cyclone 199914 2000 Season Cyclone 200002 >

Help